Aérodrome :
LOGIN :

S'inscrire | Disclaimer

   EN    FR    IT 

 










Légende :    VFR   VFR Marginal   IFR   IFR Intensif   IFR Très Intensif
Visi : 
Plafond : 
>= 8 km
>= 3000ft
5 à 8 km
1000 à 3000 ft
1500m à 5 km
500 à 1000 ft
800 à 1500m
200 à 500 ft
< 800m
< 200 ft
Symboles :   Orages  Brouillard  Fortes neiges  Fortes précipitations  Vent > 20 kt
SIGMETs :   Divers  Orages  Givrage  Turbulence  Onde Orograph.  Cendres Volcan.







- Altitude de l'aérodrome : 1302 ft
- Code IATA : GNB
- Voir les cartes d'approche


LFLS - Grenoble / St. Geoirs

DERNIER METAR :
  • 252000Z AUTO 33004KT 260V040 9999 -RA OVC066 10/06 Q1006

METARs EXPIRÉS :
  • 251930Z AUTO VRB03KT 7000 RA FEW033/// OVC064/// ///TCU 11/06 Q1006
  • 251900Z AUTO 25005KT 130V290 9999 OVC064/// ///TCU 12/05 Q1006 TEMPO 24015G35KT BECMG RA OVC030
  • 251830Z AUTO 29007KT 9999 BKN062 OVC080 12/05 Q1006 TEMPO 24015G35KT BECMG RA
  • 251800Z AUTO 24005KT 180V270 9999 BKN066 OVC080 14/03 Q1005 NOSIG
  • 251730Z AUTO 15008KT 090V210 9999 BKN068 OVC082 14/03 Q1006 NOSIG

TAF TAF LFLS
Valide du 25 à 15h jusqu'au 26 à 15h UTC


251400Z 2515/2615 28008KT 9999 -RA OVC050
BECMG 2520/2522 5000 RA OVC030
TEMPO 2520/2523 24015G35KT
BECMG 2522/2524 09005KT
BECMG 2601/2603 BKN010
PROB30
TEMPO 2606/2610 3000 RASN OVC004
BECMG 2610/2612 NSW OVC020
ATIS : +33 4 76 65 55 89
Pas de NOTAMs connus pour ce terrain.



MET'MAP, la Météo Aéronautique d'un coup d'oeil ! - Copyright ORBIFLY Décembre 2007 - Disclaimer

ORBIFLY MET'MAP TEAM :

Programmation & Développement : Alexandra Zaïnal
Conception & Développement : Baudouin d'Aumeries
Co-Programmation & Développement : Marc-Olivier Méhu
Soutien technique & logistique : Manuel Goepfert

Contact : metmap@orbifly.com




SOURCES & CREDITS :

   NOAA